Time;durP1;ratioP1;P1;durP2;ratioP2;P2;SDS_P1;SDS_P2;PMS_P1;PMS_P2;Temp;Humidity;BMP_temperature;BMP_pressure;BME280_temperature;BME280_humidity;BME280_pressure;Samples;Min_cycle;Max_cycle;Signal;HPM_P1;HPM_P2
2022/04/03 00:01:54;;;;;;;16.98;9.50;;;0.70;99.90;;;;;;4951273;28;20449;-67
2022/04/03 00:04:23;;;;;;;18.08;10.55;;;0.70;99.90;;;;;;4951106;29;20047;-68
2022/04/03 00:06:50;;;;;;;13.38;8.43;;;0.70;99.90;;;;;;4950726;29;20051;-68
2022/04/03 00:09:17;;;;;;;14.07;8.05;;;0.70;99.90;;;;;;4942155;28;20052;-68
2022/04/03 00:11:43;;;;;;;15.18;8.43;;;0.60;99.90;;;;;;4942447;29;20074;-67
2022/04/03 00:14:10;;;;;;;13.38;8.23;;;0.60;99.90;;;;;;4945661;29;20082;-70
2022/04/03 00:16:37;;;;;;;14.07;8.18;;;0.60;99.90;;;;;;4942289;29;20058;-68
2022/04/03 00:19:04;;;;;;;15.13;9.40;;;0.60;99.90;;;;;;4947746;29;20051;-68
2022/04/03 00:21:34;;;;;;;12.80;8.32;;;0.60;99.90;;;;;;4944860;29;20043;-70
2022/04/03 00:24:01;;;;;;;16.77;8.80;;;0.60;99.90;;;;;;4941221;29;20502;-68
2022/04/03 00:26:29;;;;;;;12.10;7.82;;;0.60;99.90;;;;;;4918686;29;20048;-76
2022/04/03 00:28:56;;;;;;;16.50;9.55;;;0.50;99.90;;;;;;4947065;29;20055;-69
2022/04/03 00:31:23;;;;;;;15.63;8.98;;;0.50;99.90;;;;;;4947799;29;20044;-68
2022/04/03 00:33:50;;;;;;;13.25;8.82;;;0.50;99.90;;;;;;4944700;29;20056;-63
2022/04/03 00:36:17;;;;;;;303.95;186.05;;;0.50;99.90;;;;;;4930519;29;20551;-71
2022/04/03 00:38:45;;;;;;;61.42;35.78;;;0.60;99.90;;;;;;4945666;29;20051;-68
2022/04/03 00:41:13;;;;;;;78.65;42.03;;;0.60;99.90;;;;;;4929349;29;20052;-73
2022/04/03 00:43:40;;;;;;;30.63;18.02;;;0.50;99.90;;;;;;4951010;29;20047;-68
2022/04/03 00:46:07;;;;;;;20.80;12.32;;;0.50;99.90;;;;;;4936511;29;20515;-69
2022/04/03 00:48:33;;;;;;;16.95;10.55;;;0.50;99.90;;;;;;4952511;29;20073;-68
2022/04/03 00:51:00;;;;;;;13.40;8.82;;;0.40;99.90;;;;;;4952870;29;20051;-67
2022/04/03 00:53:27;;;;;;;13.18;8.85;;;0.40;99.90;;;;;;4953963;29;20047;-68
2022/04/03 00:55:54;;;;;;;17.23;8.32;;;0.30;99.90;;;;;;4951911;29;20044;-67
2022/04/03 00:58:22;;;;;;;10.77;6.82;;;0.30;99.90;;;;;;4951428;28;20055;-68
2022/04/03 01:00:49;;;;;;;14.55;6.82;;;0.30;99.90;;;;;;4952164;29;20061;-67
2022/04/03 01:03:16;;;;;;;11.68;7.93;;;0.30;99.90;;;;;;4959568;28;20047;-68
2022/04/03 01:05:42;;;;;;;11.20;6.88;;;0.20;99.90;;;;;;4952289;29;20047;-69
2022/04/03 01:08:10;;;;;;;11.60;6.88;;;0.20;99.90;;;;;;4953443;28;20059;-68
2022/04/03 01:10:37;;;;;;;14.05;7.43;;;0.20;99.90;;;;;;4937974;28;20411;-68
2022/04/03 01:13:04;;;;;;;10.02;6.80;;;0.20;99.90;;;;;;4922899;29;20500;-67
2022/04/03 01:15:32;;;;;;;10.80;7.82;;;0.10;99.90;;;;;;4968448;28;20058;-67
2022/04/03 01:17:59;;;;;;;14.25;7.50;;;0.10;99.90;;;;;;4955936;28;20047;-67
2022/04/03 01:20:26;;;;;;;12.93;7.13;;;0.10;99.90;;;;;;4948164;29;20047;-68
2022/04/03 01:22:54;;;;;;;11.43;7.05;;;0.10;99.90;;;;;;4955848;29;20066;-67
2022/04/03 01:25:21;;;;;;;12.23;7.00;;;0.00;99.90;;;;;;4956362;29;20070;-67
2022/04/03 01:27:47;;;;;;;11.98;6.40;;;0.00;99.90;;;;;;4954531;29;20054;-67
2022/04/03 01:30:15;;;;;;;17.92;7.85;;;0.00;99.90;;;;;;4955633;29;20059;-73
2022/04/03 01:32:42;;;;;;;11.65;6.45;;;0.00;99.90;;;;;;4956019;29;20043;-68
2022/04/03 01:35:09;;;;;;;10.65;5.97;;;-0.10;99.90;;;;;;4956045;29;20043;-67
2022/04/03 01:37:36;;;;;;;13.52;6.35;;;-0.10;99.90;;;;;;4956999;28;20051;-68
2022/04/03 01:40:04;;;;;;;10.77;5.90;;;-0.10;99.90;;;;;;4955441;29;20065;-69
2022/04/03 01:42:31;;;;;;;12.13;6.47;;;-0.10;99.90;;;;;;4955415;29;20066;-68
2022/04/03 01:44:58;;;;;;;9.55;6.22;;;-0.10;99.90;;;;;;4954839;29;20043;-68
2022/04/03 01:47:25;;;;;;;12.52;7.03;;;-0.10;99.90;;;;;;4956084;29;20051;-68
2022/04/03 01:49:54;;;;;;;16.13;6.88;;;-0.20;99.90;;;;;;4955407;29;20098;-72
2022/04/03 01:52:22;;;;;;;13.02;6.72;;;-0.20;99.90;;;;;;4956609;28;20542;-67
2022/04/03 01:54:49;;;;;;;10.85;6.40;;;-0.20;99.90;;;;;;4939243;29;20055;-67
2022/04/03 01:57:16;;;;;;;8.55;6.15;;;-0.20;99.90;;;;;;4958340;28;20051;-68
2022/04/03 01:59:42;;;;;;;12.07;6.55;;;-0.20;99.90;;;;;;4937180;29;20055;-68
2022/04/03 02:02:11;;;;;;;14.98;6.13;;;-0.30;99.90;;;;;;4954808;29;20047;-68
2022/04/03 02:04:39;;;;;;;12.95;6.78;;;-0.30;99.90;;;;;;4955428;28;20050;-68
2022/04/03 02:07:06;;;;;;;15.68;7.38;;;-0.30;99.90;;;;;;4954051;29;20054;-69
2022/04/03 02:09:32;;;;;;;11.45;6.63;;;-0.30;99.90;;;;;;4955985;28;20064;-69
2022/04/03 02:11:59;;;;;;;9.50;5.63;;;-0.30;99.90;;;;;;4957949;28;20047;-68
2022/04/03 02:14:26;;;;;;;12.45;6.03;;;-0.40;99.90;;;;;;4953510;29;20055;-73
2022/04/03 02:16:57;;;;;;;10.30;6.25;;;-0.30;99.90;;;;;;4926038;29;20048;-69
2022/04/03 02:19:24;;;;;;;11.68;6.72;;;-0.40;99.90;;;;;;4950724;28;20860;-69
2022/04/03 02:21:51;;;;;;;11.25;6.18;;;-0.40;99.90;;;;;;4938229;29;20062;-69
2022/04/03 02:24:18;;;;;;;10.80;6.45;;;-0.40;99.90;;;;;;4953596;29;20058;-69
2022/04/03 02:26:46;;;;;;;17.23;5.70;;;-0.40;99.90;;;;;;4938312;29;20129;-69
2022/04/03 02:29:12;;;;;;;10.65;5.75;;;-0.40;99.90;;;;;;4953404;29;20062;-69
2022/04/03 02:31:39;;;;;;;13.18;6.65;;;-0.40;99.90;;;;;;4955180;29;20402;-69
2022/04/03 02:34:07;;;;;;;11.38;6.25;;;-0.50;99.90;;;;;;4954012;29;20055;-73
2022/04/03 02:36:34;;;;;;;12.05;7.68;;;-0.50;99.90;;;;;;4954408;29;20075;-70
2022/04/03 02:39:01;;;;;;;10.38;6.25;;;-0.50;99.90;;;;;;4947708;29;20052;-69
2022/04/03 02:41:28;;;;;;;8.52;5.63;;;-0.50;99.90;;;;;;4947421;29;20051;-70
2022/04/03 02:43:55;;;;;;;14.77;6.45;;;-0.50;99.90;;;;;;4937207;29;20054;-70
2022/04/03 02:46:22;;;;;;;10.57;6.82;;;-0.50;99.90;;;;;;4944480;29;20062;-69
2022/04/03 02:48:49;;;;;;;11.07;6.15;;;-0.50;99.90;;;;;;4952337;29;20047;-70
2022/04/03 02:51:16;;;;;;;12.85;6.55;;;-0.60;99.90;;;;;;4937446;29;20054;-69
2022/04/03 02:53:43;;;;;;;13.95;6.88;;;-0.60;99.90;;;;;;4946143;29;20126;-69
2022/04/03 02:56:10;;;;;;;12.43;6.55;;;-0.60;99.90;;;;;;4954602;29;20399;-69
2022/04/03 02:58:37;;;;;;;14.32;6.95;;;-0.60;99.90;;;;;;4953759;28;20487;-71
2022/04/03 03:01:04;;;;;;;11.13;6.95;;;-0.60;99.90;;;;;;4953347;29;20062;-69
2022/04/03 03:03:31;;;;;;;11.60;6.15;;;-0.60;99.90;;;;;;4953555;29;20668;-69
2022/04/03 03:05:58;;;;;;;16.27;7.55;;;-0.60;99.90;;;;;;4953178;29;20456;-69
2022/04/03 03:08:25;;;;;;;13.05;7.10;;;-0.70;99.90;;;;;;4932860;29;20047;-70
2022/04/03 03:10:52;;;;;;;9.13;5.95;;;-0.60;99.90;;;;;;4922122;28;20513;-70
2022/04/03 03:13:19;;;;;;;11.02;6.10;;;-0.70;99.90;;;;;;4952445;29;20074;-69
2022/04/03 03:15:46;;;;;;;12.45;7.82;;;-0.70;99.90;;;;;;4952837;29;20051;-73
2022/04/03 03:18:13;;;;;;;11.35;6.05;;;-0.70;99.90;;;;;;4952948;29;20043;-70
2022/04/03 03:20:40;;;;;;;11.60;7.03;;;-0.70;99.90;;;;;;4953593;28;20058;-69
2022/04/03 03:23:07;;;;;;;8.88;6.28;;;-0.70;99.90;;;;;;4953720;29;20051;-69
2022/04/03 03:25:34;;;;;;;9.95;5.93;;;-0.70;99.90;;;;;;4952622;29;20479;-70
2022/04/03 03:28:01;;;;;;;9.93;6.25;;;-0.80;99.90;;;;;;4952358;29;20518;-69
2022/04/03 03:30:28;;;;;;;12.02;6.38;;;-0.80;99.90;;;;;;4952242;29;20073;-69
2022/04/03 03:32:55;;;;;;;22.70;7.25;;;-0.80;99.90;;;;;;4953631;28;20067;-69
2022/04/03 03:35:22;;;;;;;9.75;5.60;;;-0.80;99.90;;;;;;4952173;29;20051;-70
2022/04/03 03:37:49;;;;;;;12.60;6.85;;;-0.80;99.90;;;;;;4952130;29;20075;-69
2022/04/03 03:40:16;;;;;;;12.77;6.28;;;-0.80;99.90;;;;;;4949998;29;20054;-69
2022/04/03 03:42:43;;;;;;;12.25;6.95;;;-0.80;99.90;;;;;;4952846;29;20055;-69
2022/04/03 03:45:11;;;;;;;9.70;5.50;;;-0.90;99.90;;;;;;4951618;29;20101;-70
2022/04/03 03:47:38;;;;;;;8.82;4.82;;;-0.80;99.90;;;;;;4952056;29;20043;-69
2022/04/03 03:50:05;;;;;;;8.00;5.68;;;-0.90;99.90;;;;;;4951912;29;20151;-70
2022/04/03 03:52:32;;;;;;;9.82;5.93;;;-0.90;99.90;;;;;;4936323;29;20055;-69
2022/04/03 03:54:59;;;;;;;10.18;6.38;;;-0.90;99.90;;;;;;4952715;28;20049;-70
2022/04/03 03:57:26;;;;;;;17.45;6.15;;;-0.90;99.90;;;;;;4954272;28;20372;-70
2022/04/03 03:59:53;;;;;;;11.20;6.40;;;-0.90;99.90;;;;;;4934558;29;20066;-70
2022/04/03 04:02:20;;;;;;;11.05;5.53;;;-0.90;99.90;;;;;;4952228;29;20055;-69
2022/04/03 04:04:47;;;;;;;10.85;6.25;;;-1.00;99.90;;;;;;4953578;29;20043;-70
2022/04/03 04:07:14;;;;;;;8.95;5.68;;;-1.00;99.90;;;;;;4951025;29;20044;-73
2022/04/03 04:09:41;;;;;;;9.38;5.47;;;-1.00;99.90;;;;;;4961773;28;20403;-70
2022/04/03 04:12:09;;;;;;;12.00;5.78;;;-1.00;99.90;;;;;;4954999;28;20047;-70
2022/04/03 04:14:38;;;;;;;9.45;5.90;;;-1.00;99.90;;;;;;4955883;28;20051;-68
2022/04/03 04:17:11;;;;;;;10.25;5.78;;;-1.00;99.90;;;;;;4950954;29;20178;-74
2022/04/03 04:19:38;;;;;;;10.02;5.45;;;-1.00;99.90;;;;;;4926797;29;20587;-69
2022/04/03 04:22:05;;;;;;;11.45;5.63;;;-1.10;99.90;;;;;;4950972;29;20047;-69
2022/04/03 04:24:32;;;;;;;10.32;5.90;;;-1.10;99.90;;;;;;4927168;29;20063;-69
2022/04/03 04:27:00;;;;;;;9.13;6.10;;;-1.10;99.90;;;;;;4952151;29;20082;-69
2022/04/03 04:29:27;;;;;;;9.88;5.97;;;-1.10;99.90;;;;;;4951455;29;20125;-70
2022/04/03 04:31:53;;;;;;;8.55;5.72;;;-1.10;99.90;;;;;;4937762;29;20072;-69
2022/04/03 04:34:21;;;;;;;11.82;6.50;;;-1.10;99.90;;;;;;4952793;29;20039;-69
2022/04/03 04:36:47;;;;;;;9.77;6.57;;;-1.10;99.90;;;;;;4952441;28;20056;-69
2022/04/03 04:39:14;;;;;;;9.25;6.57;;;-1.10;99.90;;;;;;4952016;29;20066;-70
2022/04/03 04:41:41;;;;;;;7.35;4.97;;;-1.10;99.90;;;;;;4951347;29;20051;-69
2022/04/03 04:44:08;;;;;;;11.60;6.32;;;-1.10;99.90;;;;;;4953132;28;20157;-70
2022/04/03 04:46:35;;;;;;;8.02;5.93;;;-1.20;99.90;;;;;;4939008;29;20086;-69
2022/04/03 04:49:02;;;;;;;13.00;5.75;;;-1.20;99.90;;;;;;4954843;29;20468;-70
2022/04/03 04:51:29;;;;;;;9.85;6.30;;;-1.20;99.90;;;;;;4954242;29;20090;-69
2022/04/03 04:53:56;;;;;;;33.42;7.70;;;-1.20;99.90;;;;;;4957074;28;20051;-70
2022/04/03 04:56:23;;;;;;;12.57;6.07;;;-1.20;99.90;;;;;;4955473;28;20484;-70
2022/04/03 04:58:50;;;;;;;12.45;6.97;;;-1.20;99.90;;;;;;4955247;29;20055;-69
2022/04/03 05:01:16;;;;;;;13.15;6.50;;;-1.20;99.90;;;;;;4956435;28;20054;-70
2022/04/03 05:03:43;;;;;;;11.07;7.00;;;-1.20;99.90;;;;;;4955372;29;20089;-72
2022/04/03 05:06:13;;;;;;;10.90;6.28;;;-1.20;99.90;;;;;;4955608;29;20051;-69
2022/04/03 05:08:40;;;;;;;9.93;6.60;;;-1.20;99.90;;;;;;4939499;29;20069;-70
2022/04/03 05:11:07;;;;;;;12.02;7.07;;;-1.20;99.90;;;;;;4955669;28;20043;-71
2022/04/03 05:13:34;;;;;;;12.05;6.70;;;-1.20;99.90;;;;;;4955647;29;20066;-69
2022/04/03 05:16:01;;;;;;;10.20;6.78;;;-1.20;99.90;;;;;;4939872;29;20054;-70
2022/04/03 05:18:28;;;;;;;12.45;6.93;;;-1.20;99.90;;;;;;4954664;29;20043;-70
2022/04/03 05:20:55;;;;;;;15.50;7.30;;;-1.20;99.90;;;;;;4954876;29;20046;-69
2022/04/03 05:23:22;;;;;;;9.10;6.10;;;-1.20;99.90;;;;;;4955203;29;20491;-69
2022/04/03 05:25:49;;;;;;;15.60;8.45;;;-1.20;99.90;;;;;;4954949;29;20419;-69
2022/04/03 05:28:16;;;;;;;12.75;7.30;;;-1.20;99.90;;;;;;4954613;29;20043;-69
2022/04/03 05:30:43;;;;;;;8.85;6.45;;;-1.20;99.90;;;;;;4955446;28;20039;-69
2022/04/03 05:33:10;;;;;;;10.38;7.07;;;-1.20;99.90;;;;;;4938903;29;20047;-69
2022/04/03 05:35:37;;;;;;;14.20;7.72;;;-1.20;99.90;;;;;;4954668;29;20055;-69
2022/04/03 05:38:04;;;;;;;9.10;6.65;;;-1.20;99.90;;;;;;4955506;29;20175;-69
2022/04/03 05:40:31;;;;;;;11.27;7.00;;;-1.20;99.90;;;;;;4949630;29;20058;-69
2022/04/03 05:42:59;;;;;;;10.95;7.15;;;-1.20;99.90;;;;;;4938470;29;20491;-70
2022/04/03 05:45:26;;;;;;;10.60;6.55;;;-1.20;99.90;;;;;;4953826;29;20059;-69
2022/04/03 05:47:53;;;;;;;9.40;5.95;;;-1.20;99.90;;;;;;4951056;28;20439;-70
2022/04/03 05:50:20;;;;;;;8.70;6.60;;;-1.20;99.90;;;;;;4955122;28;20047;-69
2022/04/03 05:52:48;;;;;;;12.32;7.50;;;-1.20;99.90;;;;;;4954436;29;20043;-69
2022/04/03 05:55:16;;;;;;;11.15;6.85;;;-1.20;99.90;;;;;;4952734;28;20046;-69
2022/04/03 05:57:44;;;;;;;10.95;7.10;;;-1.10;99.90;;;;;;4955042;28;20050;-69
2022/04/03 06:00:14;;;;;;;15.90;8.45;;;-1.10;99.90;;;;;;4934618;29;20043;-69
2022/04/03 06:02:56;;;;;;;13.32;8.50;;;-1.20;99.90;;;;;;4936855;29;20079;-70
2022/04/03 06:05:25;;;;;;;14.30;7.53;;;-1.10;99.90;;;;;;4936369;29;20050;-69
2022/04/03 06:07:58;;;;;;;14.82;7.93;;;-1.10;99.90;;;;;;4955092;29;20051;-69
2022/04/03 06:10:26;;;;;;;13.43;8.73;;;-1.10;99.90;;;;;;4953987;29;20434;-70
2022/04/03 06:13:06;;;;;;;14.60;7.70;;;-1.00;99.90;;;;;;4954071;29;20047;-69
2022/04/03 06:15:34;;;;;;;10.35;7.13;;;-1.00;99.90;;;;;;4954190;29;20053;-70
2022/04/03 06:18:01;;;;;;;14.32;9.02;;;-1.00;99.90;;;;;;4955427;28;20376;-69
2022/04/03 06:20:28;;;;;;;15.02;10.18;;;-0.90;99.90;;;;;;4954170;29;20055;-69
2022/04/03 06:22:55;;;;;;;17.48;9.38;;;-0.90;99.90;;;;;;4937897;29;20127;-69
2022/04/03 06:25:22;;;;;;;10.80;7.57;;;-0.90;99.90;;;;;;4954359;29;20043;-70
2022/04/03 06:27:51;;;;;;;10.07;7.70;;;-0.80;99.90;;;;;;4954352;29;20058;-70
2022/04/03 06:30:18;;;;;;;15.35;8.95;;;-0.80;99.90;;;;;;4937548;29;20408;-69
2022/04/03 06:32:44;;;;;;;11.77;8.02;;;-0.80;99.90;;;;;;4954121;29;20054;-71
2022/04/03 06:35:11;;;;;;;12.38;8.48;;;-0.70;99.90;;;;;;4953423;29;20039;-72
2022/04/03 06:37:38;;;;;;;12.07;8.70;;;-0.70;99.90;;;;;;4954902;28;20051;-70
2022/04/03 06:40:06;;;;;;;13.32;8.85;;;-0.60;99.90;;;;;;4948711;29;20053;-70
2022/04/03 06:42:33;;;;;;;15.27;8.52;;;-0.60;99.90;;;;;;4953271;29;20069;-70
2022/04/03 06:45:00;;;;;;;14.18;8.48;;;-0.50;99.90;;;;;;4954244;28;20058;-70
2022/04/03 06:47:27;;;;;;;13.00;8.60;;;-0.40;99.90;;;;;;4934322;29;20538;-70
2022/04/03 06:49:54;;;;;;;14.88;9.10;;;-0.40;99.90;;;;;;4951751;29;20113;-70
2022/04/03 06:52:21;;;;;;;13.48;9.02;;;-0.30;99.90;;;;;;4953580;29;20146;-69
2022/04/03 06:54:52;;;;;;;13.85;8.98;;;-0.30;99.90;;;;;;4941641;29;20040;-70
2022/04/03 06:57:19;;;;;;;14.85;9.07;;;-0.20;99.90;;;;;;4946085;29;20130;-69
2022/04/03 06:59:46;;;;;;;16.73;9.05;;;-0.10;99.90;;;;;;4952642;29;20398;-70
2022/04/03 07:02:13;;;;;;;15.50;9.32;;;-0.10;99.90;;;;;;4952815;29;20113;-69
2022/04/03 07:04:40;;;;;;;17.00;9.68;;;0.00;99.90;;;;;;4952673;29;20396;-70
2022/04/03 07:07:07;;;;;;;14.95;9.40;;;0.10;99.90;;;;;;4951983;28;20462;-69
2022/04/03 07:09:39;;;;;;;14.77;8.95;;;0.10;99.90;;;;;;4934138;29;20063;-70
2022/04/03 07:12:07;;;;;;;20.33;9.50;;;0.20;99.90;;;;;;4937535;29;20058;-70
2022/04/03 07:14:34;;;;;;;14.30;10.13;;;0.30;99.90;;;;;;4951886;29;20059;-70
2022/04/03 07:17:01;;;;;;;13.90;9.70;;;0.30;99.90;;;;;;4952936;29;20043;-70
2022/04/03 07:19:28;;;;;;;20.02;10.55;;;0.40;99.90;;;;;;4951340;29;20497;-71
2022/04/03 07:21:56;;;;;;;14.95;10.73;;;0.50;99.90;;;;;;4952416;29;20083;-70
2022/04/03 07:24:25;;;;;;;17.42;10.25;;;0.60;99.90;;;;;;4936484;29;20083;-70
2022/04/03 07:26:53;;;;;;;16.38;10.40;;;0.60;99.90;;;;;;4953118;29;20043;-70
2022/04/03 07:29:23;;;;;;;14.48;10.85;;;0.70;99.90;;;;;;4918196;29;20063;-70
2022/04/03 07:31:50;;;;;;;17.98;11.23;;;0.80;99.90;;;;;;4948476;29;20372;-70
2022/04/03 07:34:18;;;;;;;13.35;10.13;;;0.90;99.90;;;;;;4952794;29;20053;-70
2022/04/03 07:36:44;;;;;;;17.65;10.43;;;1.00;99.90;;;;;;4936955;29;20058;-70
2022/04/03 07:39:12;;;;;;;16.70;11.63;;;1.20;99.90;;;;;;4924498;29;20060;-70
2022/04/03 07:41:39;;;;;;;13.75;9.93;;;1.20;99.90;;;;;;4930758;29;20043;-70
2022/04/03 07:44:08;;;;;;;14.43;10.43;;;1.30;99.90;;;;;;4952918;28;20047;-71
2022/04/03 07:46:40;;;;;;;13.43;10.30;;;1.40;99.90;;;;;;4952606;29;20051;-70
2022/04/03 07:49:07;;;;;;;13.52;9.98;;;1.40;99.90;;;;;;4936290;29;20061;-70
2022/04/03 07:51:34;;;;;;;14.85;9.90;;;1.50;99.90;;;;;;4952815;29;20054;-70
2022/04/03 07:54:01;;;;;;;12.60;10.45;;;1.60;99.90;;;;;;4952331;29;20050;-70
2022/04/03 07:56:30;;;;;;;13.60;10.15;;;1.70;99.90;;;;;;4951977;29;20051;-70
2022/04/03 07:58:57;;;;;;;12.65;10.30;;;1.80;99.90;;;;;;4951683;29;20047;-71
2022/04/03 08:01:24;;;;;;;17.05;11.13;;;1.80;99.90;;;;;;4952103;29;20062;-73
2022/04/03 08:03:51;;;;;;;12.77;9.73;;;1.90;99.90;;;;;;4951517;29;20432;-71
2022/04/03 08:06:18;;;;;;;14.75;9.40;;;2.00;99.90;;;;;;4935263;29;20168;-71
2022/04/03 08:08:44;;;;;;;15.00;10.50;;;2.00;99.90;;;;;;4943794;29;20393;-71
2022/04/03 08:11:12;;;;;;;15.15;10.75;;;2.10;99.90;;;;;;4963927;28;20507;-71
2022/04/03 08:13:38;;;;;;;13.65;11.02;;;2.20;99.90;;;;;;4936506;29;20059;-74
2022/04/03 08:16:05;;;;;;;12.32;10.10;;;2.30;99.90;;;;;;4951602;29;20066;-70
2022/04/03 08:18:33;;;;;;;11.35;9.95;;;2.30;99.90;;;;;;4933182;29;20055;-70
2022/04/03 08:21:02;;;;;;;45.83;34.40;;;2.40;99.90;;;;;;4952995;28;20055;-70
2022/04/03 08:23:29;;;;;;;15.25;12.27;;;2.50;99.90;;;;;;4951015;29;20055;-70
2022/04/03 08:25:56;;;;;;;15.07;9.95;;;2.60;99.90;;;;;;4932967;29;20469;-70
2022/04/03 08:28:24;;;;;;;12.23;10.30;;;2.70;99.90;;;;;;4935935;29;20487;-71
2022/04/03 08:30:51;;;;;;;13.45;9.35;;;2.70;99.90;;;;;;4948878;29;20106;-71
2022/04/03 08:33:18;;;;;;;13.20;9.50;;;2.80;99.90;;;;;;4928389;29;20063;-68
2022/04/03 08:35:46;;;;;;;14.25;10.75;;;2.90;99.90;;;;;;4951307;29;20075;-71
2022/04/03 08:38:13;;;;;;;16.75;11.13;;;2.90;99.90;;;;;;4952727;28;20050;-70
2022/04/03 08:40:42;;;;;;;13.65;10.48;;;2.90;99.90;;;;;;4934647;29;20075;-70
2022/04/03 08:43:09;;;;;;;12.98;9.73;;;3.00;99.90;;;;;;4951100;28;20059;-71
2022/04/03 08:45:36;;;;;;;12.15;9.02;;;3.10;99.90;;;;;;4948436;29;20052;-71
2022/04/03 08:48:03;;;;;;;14.95;8.15;;;3.20;99.90;;;;;;4951685;29;20058;-72
2022/04/03 08:50:35;;;;;;;9.68;7.55;;;3.30;99.90;;;;;;4952312;29;20498;-70
2022/04/03 08:53:04;;;;;;;13.25;8.73;;;3.40;99.90;;;;;;4936338;29;20089;-71
2022/04/03 08:55:31;;;;;;;10.13;7.10;;;3.60;99.90;;;;;;4952937;28;20407;-70
2022/04/03 08:57:58;;;;;;;9.60;7.10;;;3.70;99.90;;;;;;4942195;29;20043;-72
2022/04/03 09:00:26;;;;;;;10.05;5.70;;;3.80;99.90;;;;;;4950188;29;20491;-71
2022/04/03 09:02:53;;;;;;;8.27;6.22;;;3.90;99.90;;;;;;4950340;29;20438;-71
2022/04/03 09:05:20;;;;;;;8.85;6.85;;;4.00;99.90;;;;;;4947105;28;20059;-73
2022/04/03 09:08:02;;;;;;;9.60;6.10;;;4.10;99.90;;;;;;4951078;29;20051;-71
2022/04/03 09:10:30;;;;;;;7.47;6.15;;;4.20;99.90;;;;;;4949804;29;20047;-71
2022/04/03 09:12:57;;;;;;;8.57;5.60;;;4.20;99.90;;;;;;4950980;29;20419;-72
2022/04/03 09:15:24;;;;;;;10.32;6.30;;;4.30;99.90;;;;;;4931751;29;20060;-73
2022/04/03 09:17:55;;;;;;;18.80;12.70;;;4.50;99.90;;;;;;4931444;29;20098;-72
2022/04/03 09:20:30;;;;;;;5.75;3.40;;;4.80;99.90;;;;;;4951785;29;20130;-74
2022/04/03 09:23:02;;;;;;;6.93;2.95;;;5.00;99.90;;;;;;4951348;29;20047;-69
2022/04/03 09:25:37;;;;;;;4.57;3.05;;;5.10;99.90;;;;;;4935107;29;20051;-69
2022/04/03 09:28:06;;;;;;;5.35;2.45;;;5.30;99.90;;;;;;4932610;29;20047;-67
2022/04/03 09:30:38;;;;;;;40.25;30.48;;;5.30;99.90;;;;;;4937838;29;20059;-64
2022/04/03 09:33:09;;;;;;;9.85;6.95;;;5.40;99.90;;;;;;4956459;28;20047;-74
2022/04/03 09:36:14;;;;;;;5.28;3.30;;;5.50;99.90;;;;;;4954730;29;20071;-74
2022/04/03 09:38:43;;;;;;;5.32;3.30;;;5.50;99.90;;;;;;4876601;29;20053;-70
2022/04/03 09:41:11;;;;;;;7.53;3.05;;;5.60;99.90;;;;;;4878501;29;20077;-70
2022/04/03 09:43:38;;;;;;;4.55;2.65;;;5.60;99.90;;;;;;4893495;28;20070;-71
2022/04/03 09:46:09;;;;;;;17.02;12.15;;;5.80;99.90;;;;;;4952979;29;20069;-70
2022/04/03 09:48:43;;;;;;;6.43;4.53;;;5.80;99.90;;;;;;4953846;29;20501;-73
2022/04/03 09:51:14;;;;;;;5.63;3.38;;;5.80;99.90;;;;;;4958707;28;20057;-72
2022/04/03 09:53:45;;;;;;;4.22;2.42;;;5.90;99.90;;;;;;4938205;29;20048;-73
2022/04/03 09:56:22;;;;;;;5.43;2.40;;;5.90;99.90;;;;;;4926564;29;20048;-73
2022/04/03 09:58:52;;;;;;;7.63;3.13;;;6.00;99.90;;;;;;4951795;29;20059;-73
2022/04/03 10:01:23;;;;;;;3.25;2.20;;;6.10;99.90;;;;;;4944982;29;20051;-73
2022/04/03 10:03:51;;;;;;;6.30;3.55;;;6.20;99.90;;;;;;4955299;29;20043;-72
2022/04/03 10:06:18;;;;;;;5.97;3.63;;;6.40;99.90;;;;;;4939382;29;20062;-70
2022/04/03 10:08:48;;;;;;;18.02;12.98;;;6.30;99.90;;;;;;4922632;29;20058;-73
2022/04/03 10:11:15;;;;;;;5.20;4.13;;;6.40;99.90;;;;;;4954491;29;20396;-78
2022/04/03 10:13:43;;;;;;;9.48;5.03;;;6.50;99.90;;;;;;4951491;29;20059;-74
2022/04/03 10:16:14;;;;;;;4.20;2.17;;;6.50;99.90;;;;;;4934964;29;20074;-74
2022/04/03 10:18:41;;;;;;;4.00;2.65;;;6.60;99.90;;;;;;4927631;29;20112;-76
2022/04/03 10:21:31;;;;;;;4.57;2.53;;;6.60;99.90;;;;;;4931739;29;20066;-75
2022/04/03 10:24:05;;;;;;;6.00;2.58;;;6.50;99.10;;;;;;4938333;29;20067;-72
2022/04/03 10:26:34;;;;;;;4.57;1.98;;;6.50;99.50;;;;;;4936316;29;20491;-72
2022/04/03 10:29:01;;;;;;;15.90;11.25;;;6.40;98.80;;;;;;4945414;29;20059;-77
2022/04/03 10:31:28;;;;;;;5.15;2.97;;;6.60;96.60;;;;;;4927839;29;20134;-74
2022/04/03 10:33:56;;;;;;;4.70;2.10;;;6.60;97.00;;;;;;4947485;28;20488;-74
2022/04/03 10:36:25;;;;;;;4.93;2.10;;;6.70;95.30;;;;;;4946058;29;20047;-68
2022/04/03 10:39:05;;;;;;;5.03;2.20;;;6.70;93.20;;;;;;4914745;29;20448;-66
2022/04/03 10:41:36;;;;;;;2.88;2.22;;;6.80;95.70;;;;;;4948638;28;20055;-74
2022/04/03 10:44:22;;;;;;;2.63;2.03;;;6.80;94.80;;;;;;4924733;29;20086;-71
2022/04/03 10:47:04;;;;;;;2.97;1.92;;;6.80;92.60;;;;;;4954407;28;20073;-81
2022/04/03 10:49:32;;;;;;;3.50;2.00;;;6.90;92.90;;;;;;4954461;29;20106;-73
2022/04/03 10:52:09;;;;;;;3.17;1.88;;;6.90;93.40;;;;;;4942169;29;20054;-78
2022/04/03 10:54:57;;;;;;;4.50;2.05;;;7.00;91.30;;;;;;4938750;29;20052;-75
2022/04/03 10:57:40;;;;;;;4.82;2.40;;;6.90;91.00;;;;;;4943973;29;20047;-71
2022/04/03 11:00:12;;;;;;;3.53;2.05;;;6.90;92.70;;;;;;4954137;29;20048;-77
2022/04/03 11:02:51;;;;;;;4.63;2.80;;;6.90;91.80;;;;;;4954370;28;20055;-74
2022/04/03 11:05:21;;;;;;;5.32;2.63;;;6.90;91.60;;;;;;4954968;28;20059;-73
2022/04/03 11:08:00;;;;;;;11.25;9.52;;;6.90;91.10;;;;;;4948864;29;20490;-70
2022/04/03 11:11:05;;;;;;;10.98;8.30;;;7.00;91.40;;;;;;4953645;28;20058;-72
2022/04/03 11:13:33;;;;;;;7.22;4.80;;;7.20;90.60;;;;;;4947224;28;20043;-72
2022/04/03 11:16:08;;;;;;;7.80;4.40;;;7.30;87.80;;;;;;4953023;29;20051;-78
2022/04/03 11:18:42;;;;;;;27.88;18.27;;;7.20;87.10;;;;;;4967368;28;20416;-73
2022/04/03 11:21:20;;;;;;;6.07;4.80;;;7.10;90.00;;;;;;4954240;28;20554;-76
2022/04/03 11:24:03;;;;;;;4.47;3.08;;;7.00;89.20;;;;;;4951430;29;20056;-80
2022/04/03 11:26:30;;;;;;;3.20;2.50;;;7.20;87.60;;;;;;4944424;29;20051;-72
2022/04/03 11:29:03;;;;;;;2.60;2.08;;;7.20;85.40;;;;;;4953787;29;20054;-76
2022/04/03 11:31:30;;;;;;;3.00;2.40;;;7.30;87.20;;;;;;4952220;29;20043;-73
2022/04/03 11:33:57;;;;;;;7.28;2.80;;;7.40;84.40;;;;;;4954287;28;20051;-71
2022/04/03 11:36:26;;;;;;;3.95;2.30;;;7.50;85.30;;;;;;4936977;29;20048;-75
2022/04/03 11:38:53;;;;;;;3.40;2.07;;;7.60;84.20;;;;;;4954573;28;20054;-68
2022/04/03 11:41:34;;;;;;;3.97;2.42;;;7.60;82.50;;;;;;4937862;29;20294;-72
2022/04/03 11:44:04;;;;;;;4.47;2.30;;;7.60;81.80;;;;;;4934563;29;20052;-70
2022/04/03 11:46:34;;;;;;;10.00;5.78;;;7.60;82.70;;;;;;4952186;29;20051;-68
2022/04/03 11:49:09;;;;;;;5.95;4.20;;;7.70;83.20;;;;;;4933707;29;20063;-67
2022/04/03 11:51:36;;;;;;;6.50;3.30;;;7.80;79.50;;;;;;4948843;29;20813;-77
2022/04/03 11:54:06;;;;;;;5.18;2.15;;;7.80;81.00;;;;;;4944168;28;20487;-69
2022/04/03 11:56:38;;;;;;;2.33;1.77;;;7.80;78.20;;;;;;4944009;29;20043;-75
2022/04/03 11:59:10;;;;;;;2.55;1.95;;;7.80;76.20;;;;;;4945668;29;20048;-73
2022/04/03 12:01:38;;;;;;;3.50;1.70;;;7.60;74.50;;;;;;4947270;29;20058;-71
2022/04/03 12:04:08;;;;;;;4.32;2.17;;;7.70;73.90;;;;;;4949701;29;20470;-65
2022/04/03 12:06:35;;;;;;;;;;;7.80;73.20;;;;;;4953874;28;20059;-71
2022/04/03 12:09:10;;;;;;;3.38;1.88;;;8.00;73.80;;;;;;4950752;29;19922;-73
2022/04/03 12:11:41;;;;;;;2.50;1.98;;;8.20;71.00;;;;;;4936685;29;20067;-73
2022/04/03 12:14:08;;;;;;;19.75;14.23;;;8.40;68.20;;;;;;4928174;29;20058;-70
2022/04/03 12:16:37;;;;;;;4.82;2.58;;;8.50;68.40;;;;;;4947030;28;20459;-74
2022/04/03 12:19:05;;;;;;;6.03;2.03;;;8.60;66.40;;;;;;4952602;29;20051;-74
2022/04/03 12:21:54;;;;;;;4.18;2.13;;;8.60;69.70;;;;;;4943205;29;20138;-74
2022/04/03 12:24:22;;;;;;;3.63;1.90;;;8.90;69.40;;;;;;4943170;29;20431;-74
2022/04/03 12:26:49;;;;;;;2.90;1.65;;;9.00;67.60;;;;;;4947752;29;20098;-74
2022/04/03 12:29:16;;;;;;;3.72;1.90;;;9.00;70.80;;;;;;4943145;29;20059;-73
2022/04/03 12:31:44;;;;;;;2.55;1.80;;;9.20;70.80;;;;;;4918465;29;20062;-75
2022/04/03 12:34:15;;;;;;;5.97;2.00;;;9.30;68.40;;;;;;4945087;29;20086;-74
2022/04/03 12:36:43;;;;;;;7.90;5.70;;;9.30;63.60;;;;;;4951084;29;20044;-73
2022/04/03 12:39:32;;;;;;;62.45;47.97;;;9.20;67.70;;;;;;4951928;29;20058;-65
2022/04/03 12:42:31;;;;;;;36.22;19.98;;;9.30;65.70;;;;;;4935647;29;20111;-76
2022/04/03 12:45:06;;;;;;;8.10;5.05;;;9.20;63.50;;;;;;4933989;29;20076;-72
2022/04/03 12:47:37;;;;;;;2.92;2.17;;;9.20;66.30;;;;;;4939528;28;20483;-73
2022/04/03 12:50:07;;;;;;;3.50;2.10;;;9.20;66.70;;;;;;4949916;28;20047;-73
2022/04/03 12:52:53;;;;;;;3.78;2.17;;;9.30;66.00;;;;;;4947175;29;20419;-72
2022/04/03 13:00:46;;;;;;;3.60;3.03;;;9.10;63.80;;;;;;4945342;29;20515;-75